Time;durP1;ratioP1;P1;durP2;ratioP2;P2;SDS_P1;SDS_P2;PMS_P1;PMS_P2;Temp;Humidity;BMP_temperature;BMP_pressure;BME280_temperature;BME280_humidity;BME280_pressure;Samples;Min_cycle;Max_cycle;Signal;HPM_P1;HPM_P2
2022/01/13 00:00:29;;;;;;;219.02;25.95;;;;;;;0.49;100.00;104165.00;4962633;28;20030;-43
2022/01/13 00:02:55;;;;;;;188.15;25.42;;;;;;;0.49;100.00;104176.44;4963800;28;20521;-44
2022/01/13 00:05:26;;;;;;;194.15;27.35;;;;;;;0.51;100.00;104166.75;4963717;28;20361;-44
2022/01/13 00:07:55;;;;;;;;;;;;;;;0.51;100.00;104169.38;4963867;28;20382;-43
2022/01/13 00:10:21;;;;;;;173.23;26.02;;;;;;;0.50;100.00;104157.13;4964135;28;19921;-47
2022/01/13 00:12:46;;;;;;;177.77;26.50;;;;;;;0.51;100.00;104173.75;4963302;28;20111;-47
2022/01/13 00:25:34;;;;;;;170.20;25.63;;;;;;;0.57;100.00;104164.97;4944534;28;20039;-47
2022/01/13 00:28:03;;;;;;;185.18;25.90;;;;;;;0.57;100.00;104168.47;4963850;28;20027;-44
2022/01/13 00:30:28;;;;;;;138.05;27.42;;;;;;;0.60;100.00;104165.81;4962880;28;20558;-47
2022/01/13 00:32:53;;;;;;;177.40;27.85;;;;;;;0.64;100.00;104172.75;4963487;28;20114;-46
2022/01/13 00:35:19;;;;;;;136.90;26.45;;;;;;;0.66;100.00;104170.13;4963737;28;20513;-43
2022/01/13 00:37:44;;;;;;;135.40;26.35;;;;;;;0.67;100.00;104174.50;4944499;28;20113;-43
2022/01/13 00:40:11;;;;;;;151.38;27.23;;;;;;;0.68;100.00;104163.97;4963756;28;20027;-45
2022/01/13 00:42:36;;;;;;;157.35;24.05;;;;;;;0.69;100.00;104164.84;4962998;28;20034;-46
2022/01/13 00:45:04;;;;;;;158.45;24.60;;;;;;;0.61;100.00;104161.41;4963376;28;20034;-48
2022/01/13 00:47:30;;;;;;;134.10;25.52;;;;;;;0.58;100.00;104156.16;4962872;28;20512;-44
2022/01/13 00:49:57;;;;;;;163.40;26.08;;;;;;;0.55;100.00;104149.19;4963943;28;20026;-45
2022/01/13 00:52:24;;;;;;;140.73;26.60;;;;;;;0.55;100.00;104147.44;4962820;28;20019;-48
2022/01/13 00:54:49;;;;;;;125.57;24.60;;;;;;;0.56;100.00;104143.03;4963516;28;20038;-46
2022/01/13 00:57:14;;;;;;;126.85;26.13;;;;;;;0.60;100.00;104144.75;4928824;28;20030;-46
2022/01/13 00:59:40;;;;;;;131.48;26.67;;;;;;;0.62;100.00;104132.47;4962399;28;20083;-49
2022/01/13 01:02:05;;;;;;;142.05;25.65;;;;;;;0.63;100.00;104133.31;4963078;28;20061;-48
2022/01/13 01:04:30;;;;;;;122.32;23.98;;;;;;;0.61;100.00;104122.84;4963216;28;20105;-47
2022/01/13 01:06:55;;;;;;;147.45;24.25;;;;;;;0.63;100.00;104138.59;4962633;28;20034;-48
2022/01/13 01:09:33;;;;;;;122.85;23.90;;;;;;;0.62;100.00;104144.75;4962934;28;20369;-45
2022/01/13 01:11:58;;;;;;;124.25;24.67;;;;;;;0.65;100.00;104139.47;4962569;28;20109;-47
2022/01/13 01:14:25;;;;;;;193.30;28.52;;;;;;;0.65;100.00;104140.31;4962350;28;20133;-45
2022/01/13 01:16:50;;;;;;;112.93;22.45;;;;;;;0.63;100.00;104135.94;4945456;28;20037;-44
2022/01/13 01:19:25;;;;;;;118.30;22.00;;;;;;;0.63;100.00;104141.22;4963033;28;20023;-45
2022/01/13 01:22:15;;;;;;;122.45;23.55;;;;;;;0.64;100.00;104141.19;4962601;28;20031;-46
2022/01/13 01:24:58;;;;;;;138.48;23.73;;;;;;;0.64;100.00;104141.19;4962324;28;20501;-44
2022/01/13 01:27:29;;;;;;;133.05;23.63;;;;;;;0.62;100.00;104139.50;4962198;28;20117;-44
2022/01/13 01:29:57;;;;;;;169.65;22.88;;;;;;;0.64;100.00;104142.97;4962490;28;20105;-44
2022/01/13 01:32:23;;;;;;;125.10;22.77;;;;;;;0.66;100.00;104149.09;4962250;28;20026;-48
2022/01/13 01:34:56;;;;;;;128.80;23.60;;;;;;;0.63;100.00;104151.72;4962892;28;20125;-49
2022/01/13 01:37:26;;;;;;;136.02;23.15;;;;;;;0.63;100.00;104144.75;4962052;28;20030;-46
2022/01/13 01:39:51;;;;;;;119.97;22.52;;;;;;;0.65;100.00;104150.84;4962713;28;20375;-49
2022/01/13 01:42:18;;;;;;;172.25;24.45;;;;;;;0.62;100.00;104152.63;4961769;28;20114;-45
2022/01/13 01:44:46;;;;;;;170.15;22.38;;;;;;;0.62;100.00;104142.13;4961879;28;20061;-44
2022/01/13 01:47:13;;;;;;;132.95;20.63;;;;;;;0.61;100.00;104145.63;4962417;28;20034;-45
2022/01/13 01:49:44;;;;;;;129.52;21.02;;;;;;;0.61;100.00;104143.00;4962308;28;20083;-45
2022/01/13 01:52:12;;;;;;;122.00;21.98;;;;;;;0.61;100.00;104143.88;4962033;28;20022;-45
2022/01/13 01:54:38;;;;;;;137.45;21.75;;;;;;;0.60;100.00;104144.75;4961920;28;20111;-46
2022/01/13 01:57:04;;;;;;;165.00;24.90;;;;;;;0.58;100.00;104137.75;4961502;28;20149;-47
2022/01/13 01:59:32;;;;;;;165.40;23.45;;;;;;;0.56;100.00;104137.78;4961616;28;20492;-46
2022/01/13 02:01:59;;;;;;;141.05;24.23;;;;;;;0.54;100.00;104131.66;4960493;28;20383;-47
2022/01/13 02:04:26;;;;;;;125.30;23.10;;;;;;;0.52;100.00;104136.06;4962280;28;20026;-46
2022/01/13 02:06:54;;;;;;;133.25;21.33;;;;;;;0.52;100.00;104133.44;4961730;28;20095;-46
2022/01/13 02:09:21;;;;;;;147.75;26.15;;;;;;;0.53;100.00;104143.09;4962042;28;20110;-45
2022/01/13 02:11:51;;;;;;;119.85;25.33;;;;;;;0.53;100.00;104136.06;4962131;28;20097;-44
2022/01/13 02:16:52;;;;;;;126.63;23.48;;;;;;;0.60;100.00;104136.00;4962212;28;20490;-44
2022/01/13 02:19:18;;;;;;;132.48;22.63;;;;;;;0.61;100.00;104137.72;4960345;28;20051;-46
2022/01/13 02:21:43;;;;;;;117.95;23.45;;;;;;;0.62;100.00;104139.50;4961969;28;20502;-45
2022/01/13 02:24:09;;;;;;;138.27;24.02;;;;;;;0.59;100.00;104143.00;4962384;28;20042;-44
2022/01/13 02:26:34;;;;;;;146.30;24.15;;;;;;;0.58;100.00;104141.28;4961298;28;20034;-43
2022/01/13 02:29:00;;;;;;;206.95;27.90;;;;;;;0.54;100.00;104137.81;4961499;28;20019;-44
2022/01/13 02:31:26;;;;;;;146.77;25.35;;;;;;;0.58;100.00;104137.75;4961536;28;20378;-44
2022/01/13 02:33:53;;;;;;;205.52;23.77;;;;;;;0.58;100.00;104137.75;4961220;28;20077;-44
2022/01/13 02:36:19;;;;;;;154.63;23.23;;;;;;;0.57;100.00;104136.03;4943060;28;20021;-49
2022/01/13 02:38:49;;;;;;;155.27;24.20;;;;;;;0.59;100.00;104140.38;4961826;28;20057;-45
2022/01/13 02:41:15;;;;;;;173.05;24.55;;;;;;;0.51;100.00;104124.69;4960817;28;20070;-46
2022/01/13 02:43:43;;;;;;;190.68;25.17;;;;;;;0.58;100.00;104132.50;4962129;28;20051;-46
2022/01/13 02:48:56;;;;;;;229.65;28.17;;;;;;;0.62;100.00;104134.22;4961806;28;20038;-44
2022/01/13 02:51:21;;;;;;;242.80;25.70;;;;;;;0.60;100.00;104131.59;4960568;28;20060;-47
2022/01/13 02:53:47;;;;;;;278.30;29.38;;;;;;;0.58;100.00;104135.13;4961690;28;20037;-45
2022/01/13 02:56:12;;;;;;;246.73;27.77;;;;;;;0.59;100.00;104129.84;4961510;28;20030;-46
2022/01/13 02:58:37;;;;;;;261.42;27.95;;;;;;;0.60;100.00;104122.84;4961023;28;20343;-45
2022/01/13 03:01:04;;;;;;;239.43;26.08;;;;;;;0.61;100.00;104136.00;4960273;28;20554;-47
2022/01/13 03:03:31;;;;;;;260.70;27.02;;;;;;;0.62;100.00;104131.59;4961339;28;20093;-47
2022/01/13 03:05:56;;;;;;;275.90;29.58;;;;;;;0.62;100.00;104139.50;4961198;28;20473;-45
2022/01/13 03:08:22;;;;;;;294.80;27.55;;;;;;;0.61;100.00;104135.09;4961396;28;20037;-44
2022/01/13 03:10:47;;;;;;;338.23;30.88;;;;;;;0.60;100.00;104130.75;4959770;28;20267;-45
2022/01/13 03:13:13;;;;;;;297.40;27.52;;;;;;;0.63;100.00;104135.94;4961425;28;20153;-45
2022/01/13 03:15:38;;;;;;;241.23;27.40;;;;;;;0.66;100.00;104139.44;4959745;28;20442;-46
2022/01/13 03:18:03;;;;;;;305.45;27.67;;;;;;;0.66;100.00;104138.56;4961546;28;20426;-48
2022/01/13 03:20:29;;;;;;;232.63;27.17;;;;;;;0.67;100.00;104142.94;4960963;28;20496;-44
2022/01/13 03:22:54;;;;;;;256.55;27.45;;;;;;;0.66;100.00;104135.94;4961123;28;20035;-47
2022/01/13 03:25:23;;;;;;;211.43;27.10;;;;;;;0.65;100.00;104126.31;4961043;28;20026;-46
2022/01/13 03:27:55;;;;;;;194.13;25.55;;;;;;;0.66;100.00;104123.66;4960780;28;20339;-45
2022/01/13 03:30:20;;;;;;;237.02;28.25;;;;;;;0.68;100.00;104113.09;4959626;28;20165;-47
2022/01/13 03:32:46;;;;;;;268.63;28.85;;;;;;;0.68;100.00;104114.00;4961037;28;20113;-48
2022/01/13 03:35:11;;;;;;;204.43;26.45;;;;;;;0.69;100.00;104109.59;4961838;28;20405;-48
2022/01/13 03:37:36;;;;;;;284.80;27.92;;;;;;;0.68;100.00;104111.38;4960464;28;20030;-48
2022/01/13 03:40:03;;;;;;;188.38;25.95;;;;;;;0.68;100.00;104113.09;4961720;28;20117;-46
2022/01/13 03:42:28;;;;;;;169.63;25.60;;;;;;;0.69;100.00;104107.81;4942958;28;20058;-45
2022/01/13 03:44:54;;;;;;;190.65;26.42;;;;;;;0.71;100.00;104103.44;4960662;28;20094;-45
2022/01/13 03:47:20;;;;;;;180.25;25.77;;;;;;;0.70;100.00;104096.44;4960208;28;20556;-48
2022/01/13 03:49:46;;;;;;;203.20;25.92;;;;;;;0.68;100.00;104102.59;4961318;28;20138;-49
2022/01/13 03:52:14;;;;;;;185.93;25.88;;;;;;;0.66;100.00;104096.47;4960971;28;20359;-48
2022/01/13 03:54:39;;;;;;;183.27;24.25;;;;;;;0.64;100.00;104100.88;4961089;28;20031;-45
2022/01/13 03:57:13;;;;;;;160.73;24.42;;;;;;;0.65;100.00;104100.88;4960609;28;20035;-47
2022/01/13 04:00:16;;;;;;;172.85;25.27;;;;;;;0.63;100.00;104099.13;4960133;28;20046;-44
2022/01/13 04:02:41;;;;;;;150.32;24.00;;;;;;;0.62;100.00;104100.03;4961100;28;20091;-46
2022/01/13 04:05:06;;;;;;;159.15;24.58;;;;;;;0.61;100.00;104096.53;4961382;28;20101;-47
2022/01/13 04:07:31;;;;;;;148.15;23.73;;;;;;;0.60;100.00;104097.41;4960126;28;20283;-45
2022/01/13 04:09:57;;;;;;;282.55;28.23;;;;;;;0.59;100.00;104100.91;4960961;28;20026;-46
2022/01/13 04:12:25;;;;;;;210.25;26.30;;;;;;;0.59;100.00;104108.81;4959494;28;20076;-45
2022/01/13 04:14:55;;;;;;;194.38;25.45;;;;;;;0.59;100.00;104100.06;4963647;28;20046;-46
2022/01/13 04:17:22;;;;;;;223.77;25.17;;;;;;;0.58;100.00;104103.56;4963966;28;20037;-45
2022/01/13 04:19:49;;;;;;;278.45;29.30;;;;;;;0.55;100.00;104096.59;4964079;28;20523;-43
2022/01/13 04:22:16;;;;;;;236.15;26.17;;;;;;;0.54;100.00;104101.00;4963448;28;20109;-44
2022/01/13 04:24:49;;;;;;;290.30;27.52;;;;;;;0.48;100.00;104101.03;4964741;28;20399;-47
2022/01/13 04:27:28;;;;;;;193.10;25.38;;;;;;;0.47;100.00;104101.91;4962937;28;20105;-44
2022/01/13 04:32:39;;;;;;;201.82;22.98;;;;;;;0.34;100.00;104093.28;4963482;28;20037;-45
2022/01/13 04:35:05;;;;;;;162.60;22.38;;;;;;;0.36;100.00;104101.16;4964347;28;20035;-47
2022/01/13 04:37:30;;;;;;;158.07;23.30;;;;;;;0.38;100.00;104094.13;4962300;28;20066;-43
2022/01/13 04:39:55;;;;;;;161.20;21.02;;;;;;;0.36;100.00;104093.28;4946330;28;20173;-44
2022/01/13 04:42:21;;;;;;;151.02;22.17;;;;;;;0.36;100.00;104086.25;4963216;28;20535;-43
2022/01/13 04:44:46;;;;;;;172.13;23.40;;;;;;;0.37;100.00;104089.75;4963457;28;20045;-44
2022/01/13 04:47:11;;;;;;;199.27;24.30;;;;;;;0.38;100.00;104091.50;4964062;28;20042;-45
2022/01/13 04:49:37;;;;;;;164.75;22.88;;;;;;;0.39;100.00;104095.00;4963691;28;20053;-45
2022/01/13 04:52:02;;;;;;;177.57;22.35;;;;;;;0.41;100.00;104098.47;4963471;28;20489;-45
2022/01/13 04:54:27;;;;;;;176.77;22.63;;;;;;;0.40;100.00;104088.84;4963386;28;20153;-45
2022/01/13 04:57:06;;;;;;;231.00;23.17;;;;;;;0.40;100.00;104094.13;4962659;28;20402;-43
2022/01/13 04:59:32;;;;;;;189.23;22.98;;;;;;;0.39;100.00;104095.88;4962241;28;20027;-45
2022/01/13 05:02:00;;;;;;;171.50;22.65;;;;;;;0.38;100.00;104088.88;4963483;28;20087;-45
2022/01/13 05:04:25;;;;;;;158.82;21.08;;;;;;;0.34;100.00;104095.91;4963354;28;20038;-47
2022/01/13 05:06:50;;;;;;;169.60;21.88;;;;;;;0.34;100.00;104088.03;4962981;28;20030;-46
2022/01/13 05:09:16;;;;;;;169.63;22.17;;;;;;;0.34;100.00;104092.41;4963207;28;20110;-45
2022/01/13 05:11:41;;;;;;;141.05;20.83;;;;;;;0.32;100.00;104089.81;4962355;28;20486;-44
2022/01/13 05:14:06;;;;;;;132.73;21.17;;;;;;;0.35;100.00;104097.66;4962817;28;20031;-44
2022/01/13 05:16:50;;;;;;;190.77;22.75;;;;;;;0.36;100.00;104102.03;4962803;28;20054;-45
2022/01/13 05:19:21;;;;;;;181.18;22.25;;;;;;;0.34;100.00;104106.44;4962773;28;20027;-45
2022/01/13 05:24:15;;;;;;;188.85;21.58;;;;;;;0.34;100.00;104106.44;4962014;28;20326;-44
2022/01/13 05:26:40;;;;;;;234.80;23.70;;;;;;;0.31;100.00;104106.47;4962634;28;20137;-47
2022/01/13 05:29:06;;;;;;;207.95;22.92;;;;;;;0.31;100.00;104101.19;4962293;28;20026;-45
2022/01/13 05:31:31;;;;;;;164.25;22.70;;;;;;;0.30;100.00;104104.69;4961638;28;20014;-44
2022/01/13 05:33:56;;;;;;;265.30;27.38;;;;;;;0.26;100.00;104095.13;4962028;28;20094;-45
2022/01/13 05:36:22;;;;;;;201.60;24.50;;;;;;;0.28;100.00;104097.72;4961534;28;20029;-43
2022/01/13 05:38:47;;;;;;;217.13;25.52;;;;;;;0.27;100.00;104102.13;4962031;28;20053;-46
2022/01/13 05:41:12;;;;;;;189.15;25.23;;;;;;;0.27;100.00;104098.59;4961996;28;20476;-46
2022/01/13 05:43:38;;;;;;;203.02;22.83;;;;;;;0.27;100.00;104088.97;4961200;28;20037;-47
2022/01/13 05:46:03;;;;;;;183.48;22.75;;;;;;;0.25;100.00;104089.88;4962255;28;20545;-43
2022/01/13 05:48:29;;;;;;;202.93;24.38;;;;;;;0.24;100.00;104098.63;4961965;28;21440;-44
2022/01/13 05:50:54;;;;;;;177.25;22.35;;;;;;;0.26;100.00;104099.50;4960903;28;20081;-46
2022/01/13 05:53:20;;;;;;;177.88;22.63;;;;;;;0.27;100.00;104104.75;4961640;28;20104;-47
2022/01/13 05:55:45;;;;;;;232.88;23.45;;;;;;;0.30;100.00;104107.31;4961771;28;20054;-45
2022/01/13 05:58:11;;;;;;;180.77;22.92;;;;;;;0.30;100.00;104099.44;4961688;28;20703;-46
2022/01/13 06:00:36;;;;;;;221.48;24.98;;;;;;;0.32;100.00;104099.44;4960620;28;20768;-45
2022/01/13 06:03:02;;;;;;;187.85;21.95;;;;;;;0.33;100.00;104096.78;4962251;28;20023;-44
2022/01/13 06:05:28;;;;;;;171.52;22.73;;;;;;;0.35;100.00;104099.41;4961646;28;20587;-43
2022/01/13 06:07:53;;;;;;;237.18;24.90;;;;;;;0.36;100.00;104098.53;4942419;28;20610;-45
2022/01/13 06:10:19;;;;;;;190.77;23.55;;;;;;;0.36;100.00;104093.28;4947495;28;20374;-44
2022/01/13 06:12:49;;;;;;;201.32;23.38;;;;;;;0.34;100.00;104095.91;4960052;28;20384;-45
2022/01/13 06:15:18;;;;;;;258.23;25.20;;;;;;;0.34;100.00;104101.19;4960523;28;20044;-46
2022/01/13 06:17:43;;;;;;;236.55;24.77;;;;;;;0.31;100.00;104103.81;4961859;28;20037;-44
2022/01/13 06:20:11;;;;;;;180.93;23.30;;;;;;;0.32;100.00;104097.69;4962103;28;20026;-45
2022/01/13 06:22:37;;;;;;;202.57;24.90;;;;;;;0.34;100.00;104100.28;4942819;28;20118;-44
2022/01/13 06:25:05;;;;;;;205.10;23.73;;;;;;;0.34;100.00;104098.53;4961835;28;20022;-48
2022/01/13 06:27:31;;;;;;;192.52;24.35;;;;;;;0.36;100.00;104101.16;4958946;28;20106;-49
2022/01/13 06:29:56;;;;;;;192.68;22.63;;;;;;;0.37;100.00;104095.00;4959760;28;20342;-46
2022/01/13 06:32:22;;;;;;;201.55;22.45;;;;;;;0.35;100.00;104095.00;4959101;28;20018;-44
2022/01/13 06:34:48;;;;;;;189.38;23.48;;;;;;;0.33;100.00;104104.69;4960683;28;20026;-47
2022/01/13 06:37:14;;;;;;;270.20;25.58;;;;;;;0.35;100.00;104096.78;4960766;28;20031;-46
2022/01/13 06:39:39;;;;;;;193.35;23.58;;;;;;;0.36;100.00;104094.13;4960544;28;20054;-46
2022/01/13 06:42:05;;;;;;;214.23;24.27;;;;;;;0.38;100.00;104093.25;4961280;28;20385;-46
2022/01/13 06:44:31;;;;;;;245.38;24.65;;;;;;;0.35;100.00;104092.38;4960342;28;20169;-45
2022/01/13 06:46:57;;;;;;;191.35;23.13;;;;;;;0.38;100.00;104098.53;4961966;28;20101;-49
2022/01/13 06:49:22;;;;;;;219.95;22.83;;;;;;;0.40;100.00;104092.34;4961447;28;20458;-45
2022/01/13 06:51:47;;;;;;;194.95;22.98;;;;;;;0.43;100.00;104089.69;4961265;28;20030;-48
2022/01/13 06:54:13;;;;;;;266.45;23.85;;;;;;;0.42;100.00;104087.94;4962452;28;20433;-47
2022/01/13 06:56:39;;;;;;;207.93;22.90;;;;;;;0.39;100.00;104087.09;4960343;28;20042;-46
2022/01/13 06:59:10;;;;;;;217.10;24.05;;;;;;;0.45;100.00;104092.31;4959666;28;20478;-46
2022/01/13 07:01:36;;;;;;;157.25;23.08;;;;;;;0.48;100.00;104087.03;4959745;28;20070;-47
2022/01/13 07:04:01;;;;;;;155.40;21.80;;;;;;;0.51;100.00;104094.88;4960490;28;20474;-49
2022/01/13 07:06:27;;;;;;;171.77;23.27;;;;;;;0.51;100.00;104097.50;4960085;28;20110;-48
2022/01/13 07:08:52;;;;;;;157.68;24.23;;;;;;;0.51;100.00;104095.75;4960779;28;20059;-46
2022/01/13 07:11:17;;;;;;;176.73;23.02;;;;;;;0.50;100.00;104093.13;4959739;28;20340;-47
2022/01/13 07:13:42;;;;;;;160.05;21.60;;;;;;;0.48;100.00;104085.25;4959993;28;20117;-47
2022/01/13 07:16:08;;;;;;;205.93;25.02;;;;;;;0.48;100.00;104085.25;4961552;28;20034;-48
2022/01/13 07:18:39;;;;;;;139.82;20.55;;;;;;;0.52;100.00;104075.56;4961257;28;20201;-45
2022/01/13 07:21:06;;;;;;;144.50;21.30;;;;;;;0.50;100.00;104082.63;4961007;28;20031;-45
2022/01/13 07:23:32;;;;;;;139.48;20.58;;;;;;;0.52;100.00;104079.06;4960978;28;20169;-45
2022/01/13 07:25:57;;;;;;;138.07;21.95;;;;;;;0.51;100.00;104081.72;4961061;28;20441;-46
2022/01/13 07:28:23;;;;;;;146.95;20.92;;;;;;;0.51;100.00;104074.72;4960233;28;20034;-47
2022/01/13 07:30:48;;;;;;;168.35;22.20;;;;;;;0.53;100.00;104086.09;4960802;28;20077;-44
2022/01/13 07:33:13;;;;;;;153.98;20.70;;;;;;;0.54;100.00;104089.56;4961336;28;20038;-45
2022/01/13 07:35:38;;;;;;;178.50;21.45;;;;;;;0.53;100.00;104096.59;4959051;28;20031;-46
2022/01/13 07:38:04;;;;;;;145.77;21.02;;;;;;;0.55;100.00;104086.06;4961398;28;20050;-46
2022/01/13 07:40:29;;;;;;;229.00;22.60;;;;;;;0.55;100.00;104081.69;4961068;28;20034;-47
2022/01/13 07:42:55;;;;;;;164.35;21.02;;;;;;;0.57;100.00;104083.44;4960450;28;20078;-46
2022/01/13 07:45:20;;;;;;;139.23;19.90;;;;;;;0.57;100.00;104086.94;4958514;28;20026;-48
2022/01/13 07:47:45;;;;;;;154.30;21.23;;;;;;;0.57;100.00;104081.66;4944745;28;20026;-44
2022/01/13 07:50:13;;;;;;;160.07;22.75;;;;;;;0.58;100.00;104077.25;4965225;28;20134;-46
2022/01/13 07:52:39;;;;;;;184.98;22.65;;;;;;;0.53;100.00;104075.56;4963926;28;20039;-46
2022/01/13 07:55:04;;;;;;;122.90;20.67;;;;;;;0.60;100.00;104094.78;4965306;28;20251;-49
2022/01/13 07:57:29;;;;;;;137.25;20.27;;;;;;;0.63;100.00;104100.03;4964028;28;20485;-45
2022/01/13 07:59:56;;;;;;;124.88;19.35;;;;;;;0.62;100.00;104107.94;4963232;28;20046;-47
2022/01/13 08:02:22;;;;;;;189.73;21.15;;;;;;;0.65;100.00;104105.28;4964111;28;20450;-47
2022/01/13 08:04:49;;;;;;;178.02;21.60;;;;;;;0.66;100.00;104110.53;4963915;28;20183;-44
2022/01/13 08:07:14;;;;;;;178.00;21.90;;;;;;;0.67;100.00;104114.88;4964401;28;20052;-45
2022/01/13 08:09:39;;;;;;;157.38;20.42;;;;;;;0.69;100.00;104113.09;4964475;28;20054;-46
2022/01/13 08:12:05;;;;;;;223.50;23.65;;;;;;;0.72;100.00;104109.56;4963593;28;20117;-49
2022/01/13 08:14:30;;;;;;;159.73;19.48;;;;;;;0.71;100.00;104105.19;4963707;28;20030;-45
2022/01/13 08:16:59;;;;;;;115.90;18.08;;;;;;;0.70;100.00;104111.34;4946356;28;20019;-45
2022/01/13 08:22:08;;;;;;;151.10;18.50;;;;;;;0.71;100.00;104108.72;4963437;28;20438;-46
2022/01/13 08:24:33;;;;;;;162.80;21.70;;;;;;;0.74;100.00;104113.06;4964181;28;20616;-49
2022/01/13 08:26:59;;;;;;;186.77;20.35;;;;;;;0.76;100.00;104116.53;4963684;28;20492;-47
2022/01/13 08:29:24;;;;;;;114.13;16.98;;;;;;;0.77;100.00;104118.28;4963018;28;20597;-44
2022/01/13 08:31:49;;;;;;;131.32;18.25;;;;;;;0.77;100.00;104125.31;4964044;28;20031;-47
2022/01/13 08:34:16;;;;;;;157.68;18.52;;;;;;;0.77;100.00;104128.81;4963708;28;20031;-50
2022/01/13 08:36:42;;;;;;;153.38;18.63;;;;;;;0.76;100.00;104126.19;4963587;28;20106;-45
2022/01/13 08:39:08;;;;;;;151.50;18.02;;;;;;;0.74;100.00;104137.59;4963949;28;20051;-49
2022/01/13 08:41:33;;;;;;;115.10;17.67;;;;;;;0.78;100.00;104134.94;4963182;28;20465;-46
2022/01/13 08:43:58;;;;;;;160.52;18.08;;;;;;;0.78;100.00;104135.81;4963039;28;20033;-44
2022/01/13 08:46:25;;;;;;;177.07;19.70;;;;;;;0.79;100.00;104140.19;4963654;28;20192;-46
2022/01/13 08:48:50;;;;;;;144.00;18.40;;;;;;;0.77;100.00;104133.22;4963943;28;20030;-45
2022/01/13 08:51:18;;;;;;;138.98;17.42;;;;;;;0.78;100.00;104134.94;4961957;28;20485;-45
2022/01/13 08:53:43;;;;;;;119.72;18.52;;;;;;;0.81;100.00;104134.91;4963738;28;20041;-46
2022/01/13 08:56:09;;;;;;;102.15;17.73;;;;;;;0.84;100.00;104133.13;4963433;28;20057;-45
2022/01/13 08:58:34;;;;;;;129.30;18.20;;;;;;;0.88;100.00;104137.47;4961186;28;20038;-45
2022/01/13 09:00:59;;;;;;;122.18;18.63;;;;;;;0.90;100.00;104137.44;4963239;28;20029;-45
2022/01/13 09:03:25;;;;;;;122.85;17.55;;;;;;;0.92;100.00;104144.44;4963098;28;20112;-46
2022/01/13 09:05:50;;;;;;;145.80;18.65;;;;;;;0.94;100.00;104139.16;4962485;28;20026;-46
2022/01/13 09:08:15;;;;;;;164.30;19.52;;;;;;;0.93;100.00;104143.56;4945774;28;20023;-45
2022/01/13 09:10:43;;;;;;;163.25;21.83;;;;;;;0.95;100.00;104142.66;4963750;28;20027;-49
2022/01/13 09:13:14;;;;;;;130.07;20.52;;;;;;;0.96;100.00;104141.78;4962016;28;20034;-46
2022/01/13 09:15:44;;;;;;;154.30;20.55;;;;;;;0.96;100.00;104139.13;4963596;28;20104;-44
2022/01/13 09:18:15;;;;;;;108.57;19.67;;;;;;;0.97;100.00;104149.66;4963486;28;20035;-45
2022/01/13 09:20:41;;;;;;;195.27;22.80;;;;;;;1.00;100.00;104154.00;4963114;28;20023;-48
2022/01/13 09:23:07;;;;;;;124.68;17.67;;;;;;;1.03;100.00;104143.44;4963217;28;20470;-44
2022/01/13 09:25:33;;;;;;;145.18;18.65;;;;;;;1.04;100.00;104146.06;4962635;28;20054;-45
2022/01/13 09:27:59;;;;;;;119.80;18.95;;;;;;;1.06;100.00;104146.91;4961852;28;20031;-46
2022/01/13 09:30:25;;;;;;;119.57;18.55;;;;;;;1.09;100.00;104146.00;4962629;28;20041;-46
2022/01/13 09:32:51;;;;;;;127.55;19.42;;;;;;;1.08;100.00;104145.13;4962640;28;20025;-44
2022/01/13 09:35:16;;;;;;;126.45;20.40;;;;;;;1.11;100.00;104137.19;4962754;28;20413;-44
2022/01/13 09:37:41;;;;;;;146.35;22.75;;;;;;;1.10;100.00;104132.84;4944475;28;21155;-45
2022/01/13 09:40:09;;;;;;;130.10;20.80;;;;;;;1.13;100.00;104147.72;4962950;28;20397;-47
2022/01/13 09:42:35;;;;;;;120.95;19.10;;;;;;;1.17;100.00;104144.16;4961829;28;20041;-45
2022/01/13 09:45:03;;;;;;;129.00;19.35;;;;;;;1.18;100.00;104137.13;4961905;28;20428;-47
2022/01/13 09:47:29;;;;;;;144.18;21.33;;;;;;;1.16;100.00;104147.69;4962132;28;20050;-49
2022/01/13 09:49:57;;;;;;;128.77;19.98;;;;;;;1.18;100.00;104148.53;4962707;28;20035;-45
2022/01/13 09:52:22;;;;;;;181.77;22.38;;;;;;;1.20;100.00;104148.50;4961086;28;20030;-43
2022/01/13 09:54:48;;;;;;;172.05;20.45;;;;;;;1.19;100.00;104150.28;4962274;28;20031;-44
2022/01/13 09:57:13;;;;;;;131.52;18.80;;;;;;;1.21;100.00;104155.53;4962128;28;20378;-44
2022/01/13 09:59:39;;;;;;;101.03;20.17;;;;;;;1.26;100.00;104158.97;4961237;28;20035;-44
2022/01/13 10:02:05;;;;;;;143.45;21.10;;;;;;;1.24;100.00;104151.09;4961983;28;20114;-44
2022/01/13 10:04:47;;;;;;;169.85;20.88;;;;;;;1.29;100.00;104156.28;4961889;28;20424;-44
2022/01/13 10:07:17;;;;;;;163.48;21.17;;;;;;;1.29;100.00;104156.28;4961482;28;20027;-45
2022/01/13 10:09:53;;;;;;;164.70;21.47;;;;;;;1.32;100.00;104153.63;4961353;28;20397;-47
2022/01/13 10:12:36;;;;;;;203.82;24.25;;;;;;;1.30;100.00;104152.78;4961024;28;20049;-45
2022/01/13 10:17:44;;;;;;;160.68;20.40;;;;;;;1.28;100.00;104157.19;4960518;28;20512;-45
2022/01/13 10:20:11;;;;;;;133.43;19.63;;;;;;;1.29;100.00;104151.00;4961902;28;20362;-45
2022/01/13 10:22:36;;;;;;;152.52;21.08;;;;;;;1.28;100.00;104155.41;4960752;28;20126;-44
2022/01/13 10:25:02;;;;;;;158.23;20.70;;;;;;;1.34;100.00;104151.84;4962090;28;20457;-50
2022/01/13 10:27:30;;;;;;;125.45;21.00;;;;;;;1.40;100.00;104151.75;4961057;28;20035;-44
2022/01/13 10:30:02;;;;;;;151.15;21.05;;;;;;;1.44;100.00;104152.59;4960272;28;20465;-46
2022/01/13 10:32:37;;;;;;;119.57;20.65;;;;;;;1.43;100.00;104154.38;4943481;28;20026;-47
2022/01/13 10:35:04;;;;;;;153.40;21.25;;;;;;;1.45;100.00;104147.31;4962190;28;20121;-44
2022/01/13 10:37:34;;;;;;;178.00;24.95;;;;;;;1.45;100.00;104147.31;4960443;28;20057;-47
2022/01/13 10:40:04;;;;;;;121.55;21.73;;;;;;;1.48;100.00;104143.78;4961846;28;20065;-44
2022/01/13 10:43:06;;;;;;;115.63;20.30;;;;;;;1.51;100.00;104149.00;4959620;28;20046;-45
2022/01/13 10:45:22;;;;;;;122.88;22.30;;;;;;;1.49;100.00;104145.50;4960987;28;20126;-47
2022/01/13 10:47:53;;;;;;;146.23;24.85;;;;;;;1.47;100.00;104147.28;4943648;28;20039;-45
2022/01/13 10:50:20;;;;;;;132.15;21.10;;;;;;;1.49;100.00;104146.38;4960261;28;20069;-45
2022/01/13 10:52:45;;;;;;;100.07;20.48;;;;;;;1.52;100.00;104147.25;4960330;28;20026;-45
2022/01/13 10:55:19;;;;;;;99.88;19.77;;;;;;;1.54;100.00;104134.91;4961261;28;20031;-47
2022/01/13 10:57:44;;;;;;;104.93;20.50;;;;;;;1.53;100.00;104128.78;4959694;28;20097;-44
2022/01/13 11:00:23;;;;;;;97.82;20.65;;;;;;;1.62;100.00;104130.41;4960220;28;20536;-46
2022/01/13 11:03:04;;;;;;;144.77;22.50;;;;;;;1.62;100.00;104135.69;4957707;28;20034;-45
2022/01/13 11:05:31;;;;;;;122.93;21.83;;;;;;;1.67;100.00;104125.94;4959772;28;20031;-45
2022/01/13 11:07:57;;;;;;;144.52;25.42;;;;;;;1.67;100.00;104131.22;4951279;28;20039;-44
2022/01/13 11:10:24;;;;;;;141.60;24.80;;;;;;;1.66;100.00;104130.34;4960323;28;20023;-44
2022/01/13 11:12:56;;;;;;;133.75;23.90;;;;;;;1.68;100.00;104130.31;4959188;28;20449;-43
2022/01/13 11:15:24;;;;;;;143.43;24.45;;;;;;;1.71;100.00;104117.09;4959581;28;20142;-43
2022/01/13 11:17:49;;;;;;;124.57;23.50;;;;;;;1.77;100.00;104124.91;4961145;28;20027;-45
2022/01/13 11:20:20;;;;;;;156.82;26.70;;;;;;;1.85;100.00;104117.78;4960905;28;20057;-45
2022/01/13 11:22:47;;;;;;;119.32;25.23;;;;;;;1.90;100.00;104114.19;4963792;28;20344;-44
2022/01/13 11:25:21;;;;;;;99.03;21.58;;;;;;;1.92;100.00;104115.91;4965374;28;20038;-45
2022/01/13 11:27:46;;;;;;;107.70;23.55;;;;;;;1.97;100.00;104118.47;4963642;28;20516;-44